Time;durP1;ratioP1;P1;durP2;ratioP2;P2;SDS_P1;SDS_P2;PMS_P1;PMS_P2;Temp;Humidity;BMP_temperature;BMP_pressure;BME280_temperature;BME280_humidity;BME280_pressure;Samples;Min_cycle;Max_cycle;Signal;HPM_P1;HPM_P2
2021/11/24 00:01:50;;;;;;;;;;;;;;;;;;2220946;66;1138;-71
2021/11/24 00:04:23;;;;;;;;;;;;;;;;;;2220413;66;1226;-72
2021/11/24 00:06:56;;;;;;;;;;;;;;;;;;2220775;66;1935;-71
2021/11/24 00:09:29;;;;;;;;;;;;;;;;;;2221529;66;1307;-71
2021/11/24 00:12:03;;;;;;;;;;;;;;;;;;2221507;66;1417;-71
2021/11/24 00:14:39;;;;;;;;;;;;;;;;;;2220664;58;1094;-71
2021/11/24 00:17:12;;;;;;;;;;;;;;;;;;2220374;58;1156;-71
2021/11/24 00:19:46;;;;;;;;;;;;;;;;;;2220950;66;1485;-71
2021/11/24 00:22:19;;;;;;;;;;;;;;;;;;2221121;58;1459;-71
2021/11/24 00:24:52;;;;;;;;;;;;;;;;;;2221086;66;1259;-71
2021/11/24 00:27:25;;;;;;;;;;;;;;;;;;2221221;66;1940;-71
2021/11/24 00:30:01;;;;;;;;;;;;;;;;;;2221370;58;1656;-71
2021/11/24 00:32:34;;;;;;;;;;;;;;;;;;2220104;58;2142;-71
2021/11/24 00:35:08;;;;;;;;;;;;;;;;;;2221316;66;1307;-72
2021/11/24 00:37:42;;;;;;;;;;;;;;;;;;2220594;66;1100;-71
2021/11/24 00:40:15;;;;;;;;;;;;;;;;;;2220262;58;1830;-71
2021/11/24 00:42:48;;;;;;;;;;;;;;;;;;2221295;58;2038;-71
2021/11/24 00:45:24;;;;;;;;;;;;;;;;;;2221607;66;1223;-71
2021/11/24 00:47:57;;;;;;;;;;;;;;;;;;2222290;66;1945;-71
2021/11/24 00:50:31;;;;;;;;;;;;;;;;;;2220920;59;1197;-71
2021/11/24 00:53:04;;;;;;;;;;;;;;;;;;2221666;58;2234;-71
2021/11/24 00:55:37;;;;;;;;;;;;;;;;;;2221120;58;1210;-71
2021/11/24 00:58:10;;;;;;;;;;;;;;;;;;2219664;58;1309;-71
2021/11/24 01:00:46;;;;;;;;;;;;;;;;;;2221141;58;1229;-71
2021/11/24 01:03:19;;;;;;;;;;;;;;;;;;2220962;58;1926;-71
2021/11/24 01:05:52;;;;;;;;;;;;;;;;;;2221552;66;1401;-71
2021/11/24 01:08:25;;;;;;;;;;;;;;;;;;2220193;66;1968;-71
2021/11/24 01:10:59;;;;;;;;;;;;;;;;;;2221173;66;1253;-72
2021/11/24 01:13:32;;;;;;;;;;;;;;;;;;2220994;58;1423;-71
2021/11/24 01:16:09;;;;;;;;;;;;;;;;;;2220615;66;1258;-71
2021/11/24 01:18:42;;;;;;;;;;;;;;;;;;2221741;59;1172;-71
2021/11/24 01:21:16;;;;;;;;;;;;;;;;;;2221156;66;1178;-71
2021/11/24 01:23:49;;;;;;;;;;;;;;;;;;2221425;58;2069;-71
2021/11/24 01:26:22;;;;;;;;;;;;;;;;;;2221250;58;1313;-71
2021/11/24 01:28:56;;;;;;;;;;;;;;;;;;2221541;66;1968;-71
2021/11/24 01:31:31;;;;;;;;;;;;;;;;;;2219186;58;1916;-71
2021/11/24 01:34:05;;;;;;;;;;;;;;;;;;2221729;58;1144;-71
2021/11/24 01:36:38;;;;;;;;;;;;;;;;;;2221101;66;1208;-71
2021/11/24 01:39:11;;;;;;;;;;;;;;;;;;2220276;62;1158;-71
2021/11/24 01:41:44;;;;;;;;;;;;;;;;;;2220524;66;1231;-71
2021/11/24 01:44:22;;;;;;;;;;;;;;;;;;2221186;58;1823;-71
2021/11/24 01:46:59;;;;;;;;;;;;;;;;;;2221582;66;1102;-71
2021/11/24 01:49:32;;;;;;;;;;;;;;;;;;2221981;66;1922;-71
2021/11/24 01:52:06;;;;;;;;;;;;;;;;;;2221484;66;1269;-71
2021/11/24 01:54:39;;;;;;;;;;;;;;;;;;2219615;66;1302;-71
2021/11/24 01:57:13;;;;;;;;;;;;;;;;;;2221799;58;1151;-71
2021/11/24 01:59:46;;;;;;;;;;;;;;;;;;2221628;66;1218;-71
2021/11/24 02:02:22;;;;;;;;;;;;;;;;;;2221190;66;1287;-71
2021/11/24 02:04:55;;;;;;;;;;;;;;;;;;2221932;58;1317;-71
2021/11/24 02:07:28;;;;;;;;;;;;;;;;;;2220423;66;1987;-71
2021/11/24 02:10:01;;;;;;;;;;;;;;;;;;2220815;58;1222;-71
2021/11/24 02:12:34;;;;;;;;;;;;;;;;;;2220436;58;1444;-71
2021/11/24 02:15:08;;;;;;;;;;;;;;;;;;2220885;58;1268;-71
2021/11/24 02:17:44;;;;;;;;;;;;;;;;;;2220029;66;1183;-71
2021/11/24 02:20:36;;;;;;;;;;;;;;;;;;2220898;58;1186;-71
2021/11/24 02:23:11;;;;;;;;;;;;;;;;;;2219467;58;1445;-71
2021/11/24 02:25:45;;;;;;;;;;;;;;;;;;2220400;58;1185;-72
2021/11/24 02:28:19;;;;;;;;;;;;;;;;;;2221293;58;2030;-71
2021/11/24 02:30:52;;;;;;;;;;;;;;;;;;2220358;58;1683;-71
2021/11/24 02:33:25;;;;;;;;;;;;;;;;;;2201763;54;3591;-71
2021/11/24 02:36:01;;;;;;;;;;;;;;;;;;2196233;59;1200;-71
2021/11/24 02:38:35;;;;;;;;;;;;;;;;;;2196418;67;1401;-71
2021/11/24 02:41:08;;;;;;;;;;;;;;;;;;2198160;59;1255;-71
2021/11/24 02:43:41;;;;;;;;;;;;;;;;;;2197319;59;1832;-71
2021/11/24 02:46:15;;;;;;;;;;;;;;;;;;2195907;59;1796;-71
2021/11/24 02:48:48;;;;;;;;;;;;;;;;;;2197055;59;1992;-71
2021/11/24 02:51:24;;;;;;;;;;;;;;;;;;2196916;67;1243;-71
2021/11/24 02:53:58;;;;;;;;;;;;;;;;;;2198519;67;1196;-71
2021/11/24 02:56:31;;;;;;;;;;;;;;;;;;2198927;67;1230;-71
2021/11/24 02:59:05;;;;;;;;;;;;;;;;;;2199493;67;1292;-71
2021/11/24 03:01:39;;;;;;;;;;;;;;;;;;2197313;67;1272;-71
2021/11/24 03:04:13;;;;;;;;;;;;;;;;;;2199219;67;1126;-71
2021/11/24 03:06:50;;;;;;;;;;;;;;;;;;2198131;59;1311;-71
2021/11/24 03:09:24;;;;;;;;;;;;;;;;;;2198756;67;1918;-71
2021/11/24 03:11:58;;;;;;;;;;;;;;;;;;2198147;67;1349;-71
2021/11/24 03:14:32;;;;;;;;;;;;;;;;;;2196132;67;1316;-71
2021/11/24 03:17:05;;;;;;;;;;;;;;;;;;2197931;67;1189;-71
2021/11/24 03:19:39;;;;;;;;;;;;;;;;;;2201045;67;1312;-71
2021/11/24 03:22:21;;;;;;;;;;;;;;;;;;2202363;59;1559;-72
2021/11/24 03:24:57;;;;;;;;;;;;;;;;;;2201149;67;1263;-71
2021/11/24 03:27:32;;;;;;;;;;;;;;;;;;2200037;67;1223;-71
2021/11/24 03:30:07;;;;;;;;;;;;;;;;;;2201514;67;1967;-71
2021/11/24 03:32:40;;;;;;;;;;;;;;;;;;2198258;59;1195;-71
2021/11/24 03:35:14;;;;;;;;;;;;;;;;;;2196532;67;1159;-71
2021/11/24 03:37:51;;;;;;;;;;;;;;;;;;2198679;67;1258;-71
2021/11/24 03:40:26;;;;;;;;;;;;;;;;;;2203868;67;1356;-71
2021/11/24 03:43:00;;;;;;;;;;;;;;;;;;2198152;67;1287;-71
2021/11/24 03:45:35;;;;;;;;;;;;;;;;;;2198971;59;1889;-71
2021/11/24 03:48:09;;;;;;;;;;;;;;;;;;2196809;67;1985;-71
2021/11/24 03:50:43;;;;;;;;;;;;;;;;;;2198443;67;1181;-72
2021/11/24 03:53:19;;;;;;;;;;;;;;;;;;2196521;67;1269;-71
2021/11/24 03:55:52;;;;;;;;;;;;;;;;;;2197219;67;1279;-72
2021/11/24 03:58:25;;;;;;;;;;;;;;;;;;2196999;67;1215;-71
2021/11/24 04:00:59;;;;;;;;;;;;;;;;;;2199320;67;1199;-71
2021/11/24 04:03:32;;;;;;;;;;;;;;;;;;2196907;67;1278;-71
2021/11/24 04:06:05;;;;;;;;;;;;;;;;;;2197749;60;1244;-71
2021/11/24 04:08:42;;;;;;;;;;;;;;;;;;2198253;59;1928;-71
2021/11/24 04:11:15;;;;;;;;;;;;;;;;;;2199084;67;1279;-71
2021/11/24 04:13:48;;;;;;;;;;;;;;;;;;2196667;59;1291;-71
2021/11/24 04:16:21;;;;;;;;;;;;;;;;;;2199016;67;1088;-71
2021/11/24 04:18:55;;;;;;;;;;;;;;;;;;2195943;67;1214;-71
2021/11/24 04:21:28;;;;;;;;;;;;;;;;;;2199469;67;1235;-71
2021/11/24 04:24:04;;;;;;;;;;;;;;;;;;2197454;59;1701;-71
2021/11/24 04:26:37;;;;;;;;;;;;;;;;;;2197832;67;1203;-71
2021/11/24 04:29:11;;;;;;;;;;;;;;;;;;2199063;67;1922;-72
2021/11/24 04:31:44;;;;;;;;;;;;;;;;;;2195665;59;1566;-71
2021/11/24 04:34:17;;;;;;;;;;;;;;;;;;2197453;67;1174;-71
2021/11/24 04:36:51;;;;;;;;;;;;;;;;;;2196520;67;1121;-71
2021/11/24 04:39:27;;;;;;;;;;;;;;;;;;2197130;67;1184;-71
2021/11/24 04:42:00;;;;;;;;;;;;;;;;;;2195923;67;1249;-71
2021/11/24 04:44:33;;;;;;;;;;;;;;;;;;2198549;67;1204;-71
2021/11/24 04:47:06;;;;;;;;;;;;;;;;;;2195986;59;1710;-72
2021/11/24 04:49:40;;;;;;;;;;;;;;;;;;2196288;67;2139;-71
2021/11/24 04:52:13;;;;;;;;;;;;;;;;;;2197285;67;1323;-71
2021/11/24 04:54:49;;;;;;;;;;;;;;;;;;2196544;67;1180;-71
2021/11/24 04:57:22;;;;;;;;;;;;;;;;;;2198446;67;1267;-72
2021/11/24 04:59:56;;;;;;;;;;;;;;;;;;2198052;67;1204;-71
2021/11/24 05:02:29;;;;;;;;;;;;;;;;;;2198452;67;1195;-71
2021/11/24 05:05:02;;;;;;;;;;;;;;;;;;2196994;59;1150;-71
2021/11/24 05:07:36;;;;;;;;;;;;;;;;;;2201017;67;1263;-71
2021/11/24 05:10:12;;;;;;;;;;;;;;;;;;2198857;67;1959;-71
2021/11/24 05:12:49;;;;;;;;;;;;;;;;;;2197955;59;1324;-71
2021/11/24 05:15:25;;;;;;;;;;;;;;;;;;2196239;67;1120;-71
2021/11/24 05:18:01;;;;;;;;;;;;;;;;;;2199957;67;1051;-72
2021/11/24 05:20:37;;;;;;;;;;;;;;;;;;2198665;67;1184;-71
2021/11/24 05:23:14;;;;;;;;;;;;;;;;;;2198098;59;1455;-71
2021/11/24 05:25:50;;;;;;;;;;;;;;;;;;2197858;67;1189;-71
2021/11/24 05:28:23;;;;;;;;;;;;;;;;;;2198419;59;1411;-71
2021/11/24 05:30:56;;;;;;;;;;;;;;;;;;2197322;67;1986;-71
2021/11/24 05:33:30;;;;;;;;;;;;;;;;;;2198057;59;1272;-71
2021/11/24 05:36:03;;;;;;;;;;;;;;;;;;2195152;67;1208;-71
2021/11/24 05:38:36;;;;;;;;;;;;;;;;;;2197583;67;1201;-71
2021/11/24 05:41:12;;;;;;;;;;;;;;;;;;2198739;67;1286;-71
2021/11/24 05:43:48;;;;;;;;;;;;;;;;;;2204428;67;1212;-71
2021/11/24 05:46:29;;;;;;;;;;;;;;;;;;2197033;59;1786;-71
2021/11/24 05:49:02;;;;;;;;;;;;;;;;;;2195877;67;1941;-71
2021/11/24 05:51:35;;;;;;;;;;;;;;;;;;2196168;67;1241;-71
2021/11/24 05:54:09;;;;;;;;;;;;;;;;;;2203431;67;1168;-71
2021/11/24 05:56:45;;;;;;;;;;;;;;;;;;2197125;67;1269;-71
2021/11/24 05:59:19;;;;;;;;;;;;;;;;;;2198216;67;1275;-71
2021/11/24 06:01:52;;;;;;;;;;;;;;;;;;2197355;67;1410;-71
2021/11/24 06:04:26;;;;;;;;;;;;;;;;;;2198605;67;1269;-72
2021/11/24 06:06:59;;;;;;;;;;;;;;;;;;2198063;67;1241;-71
2021/11/24 06:09:32;;;;;;;;;;;;;;;;;;2196201;67;1926;-71
2021/11/24 06:12:09;;;;;;;;;;;;;;;;;;2196369;59;1291;-71
2021/11/24 06:14:43;;;;;;;;;;;;;;;;;;2195920;67;1159;-71
2021/11/24 06:17:17;;;;;;;;;;;;;;;;;;2198421;67;1227;-71
2021/11/24 06:19:50;;;;;;;;;;;;;;;;;;2197064;67;1248;-71
2021/11/24 06:22:24;;;;;;;;;;;;;;;;;;2198953;67;1462;-71
2021/11/24 06:24:57;;;;;;;;;;;;;;;;;;2199472;67;1225;-71
2021/11/24 06:27:33;;;;;;;;;;;;;;;;;;2198681;67;1193;-71
2021/11/24 06:30:08;;;;;;;;;;;;;;;;;;2196557;59;2472;-71
2021/11/24 06:32:41;;;;;;;;;;;;;;;;;;2196046;59;1252;-71
2021/11/24 06:35:15;;;;;;;;;;;;;;;;;;2197531;59;1378;-71
2021/11/24 06:37:48;;;;;;;;;;;;;;;;;;2197010;67;1195;-71
2021/11/24 06:40:22;;;;;;;;;;;;;;;;;;2198264;67;1397;-72
2021/11/24 06:42:58;;;;;;;;;;;;;;;;;;2197289;59;1824;-71
2021/11/24 06:45:31;;;;;;;;;;;;;;;;;;2196344;67;1249;-71
2021/11/24 06:48:05;;;;;;;;;;;;;;;;;;2195908;59;1453;-71
2021/11/24 06:50:38;;;;;;;;;;;;;;;;;;2194199;59;2312;-71
2021/11/24 06:53:12;;;;;;;;;;;;;;;;;;2194580;67;1298;-71
2021/11/24 06:55:45;;;;;;;;;;;;;;;;;;2196995;59;1327;-71
2021/11/24 06:58:22;;;;;;;;;;;;;;;;;;2196618;59;1213;-71
2021/11/24 07:00:56;;;;;;;;;;;;;;;;;;2197606;67;1229;-71
2021/11/24 07:03:29;;;;;;;;;;;;;;;;;;2197386;67;1207;-71
2021/11/24 07:06:02;;;;;;;;;;;;;;;;;;2196243;59;2262;-71
2021/11/24 07:08:36;;;;;;;;;;;;;;;;;;2194886;67;1462;-72
2021/11/24 07:11:09;;;;;;;;;;;;;;;;;;2195364;59;2362;-71
2021/11/24 07:13:45;;;;;;;;;;;;;;;;;;2196108;59;1733;-71
2021/11/24 07:16:19;;;;;;;;;;;;;;;;;;2193874;59;1783;-71
2021/11/24 07:18:52;;;;;;;;;;;;;;;;;;2197301;59;1516;-71
2021/11/24 07:21:25;;;;;;;;;;;;;;;;;;2196430;67;1258;-71
2021/11/24 07:23:59;;;;;;;;;;;;;;;;;;2197019;59;1536;-71
2021/11/24 07:26:32;;;;;;;;;;;;;;;;;;2195408;67;1154;-71
2021/11/24 07:29:09;;;;;;;;;;;;;;;;;;2195071;67;1369;-71
2021/11/24 07:31:42;;;;;;;;;;;;;;;;;;2195326;59;1937;-71
2021/11/24 07:34:15;;;;;;;;;;;;;;;;;;2197751;67;1676;-71
2021/11/24 07:36:49;;;;;;;;;;;;;;;;;;2193955;67;1354;-71
2021/11/24 07:39:22;;;;;;;;;;;;;;;;;;2199580;59;1220;-71
2021/11/24 07:41:56;;;;;;;;;;;;;;;;;;2198444;67;1260;-71
2021/11/24 07:44:32;;;;;;;;;;;;;;;;;;2194542;67;1200;-71
2021/11/24 07:47:06;;;;;;;;;;;;;;;;;;2193962;59;2230;-71
2021/11/24 07:49:39;;;;;;;;;;;;;;;;;;2199335;59;1934;-71
2021/11/24 07:52:13;;;;;;;;;;;;;;;;;;2196514;60;1821;-71
2021/11/24 07:54:46;;;;;;;;;;;;;;;;;;2196180;59;2489;-71
2021/11/24 07:57:20;;;;;;;;;;;;;;;;;;2194438;59;2841;-71
2021/11/24 07:59:56;;;;;;;;;;;;;;;;;;2196377;59;1195;-71
2021/11/24 08:02:30;;;;;;;;;;;;;;;;;;2191769;59;2010;-71
2021/11/24 08:05:04;;;;;;;;;;;;;;;;;;2194247;67;1131;-71
2021/11/24 08:07:38;;;;;;;;;;;;;;;;;;2195027;59;1782;-71
2021/11/24 08:10:12;;;;;;;;;;;;;;;;;;2197132;67;1983;-71
2021/11/24 08:12:46;;;;;;;;;;;;;;;;;;2195132;59;2189;-71
2021/11/24 08:15:22;;;;;;;;;;;;;;;;;;2194040;59;1931;-71
2021/11/24 08:17:55;;;;;;;;;;;;;;;;;;2195719;59;2038;-71
2021/11/24 08:20:29;;;;;;;;;;;;;;;;;;2198317;59;1356;-71
2021/11/24 08:23:02;;;;;;;;;;;;;;;;;;2194929;59;2169;-71
2021/11/24 08:25:36;;;;;;;;;;;;;;;;;;2198504;67;1201;-71
2021/11/24 08:28:09;;;;;;;;;;;;;;;;;;2198317;59;1765;-71
2021/11/24 08:30:45;;;;;;;;;;;;;;;;;;2198602;67;1917;-71
2021/11/24 08:33:18;;;;;;;;;;;;;;;;;;2199882;54;3663;-71
2021/11/24 08:35:52;;;;;;;;;;;;;;;;;;2198661;59;1335;-71
2021/11/24 08:38:25;;;;;;;;;;;;;;;;;;2198733;59;1166;-71
2021/11/24 08:40:58;;;;;;;;;;;;;;;;;;2200157;67;1283;-71
2021/11/24 08:43:31;;;;;;;;;;;;;;;;;;2200200;67;1184;-71
2021/11/24 08:46:07;;;;;;;;;;;;;;;;;;2200986;59;1773;-71
2021/11/24 08:48:40;;;;;;;;;;;;;;;;;;2212569;67;1107;-71
2021/11/24 08:51:13;;;;;;;;;;;;;;;;;;2198823;59;1920;-71
2021/11/24 08:53:46;;;;;;;;;;;;;;;;;;2201601;59;1506;-71
2021/11/24 08:56:20;;;;;;;;;;;;;;;;;;2198917;59;1762;-71
2021/11/24 08:58:53;;;;;;;;;;;;;;;;;;2200295;59;2289;-71
2021/11/24 09:01:29;;;;;;;;;;;;;;;;;;2198364;59;2452;-71
2021/11/24 09:04:02;;;;;;;;;;;;;;;;;;2197998;59;2491;-71
2021/11/24 09:06:35;;;;;;;;;;;;;;;;;;2202403;59;1934;-71
2021/11/24 09:09:09;;;;;;;;;;;;;;;;;;2204202;67;1214;-71
2021/11/24 09:11:42;;;;;;;;;;;;;;;;;;2198962;59;1987;-71
2021/11/24 09:14:15;;;;;;;;;;;;;;;;;;2209546;67;1198;-71
2021/11/24 09:16:51;;;;;;;;;;;;;;;;;;2205526;60;1232;-71
2021/11/24 09:19:24;;;;;;;;;;;;;;;;;;2200752;59;1662;-71
2021/11/24 09:21:58;;;;;;;;;;;;;;;;;;2198548;59;2089;-71
2021/11/24 09:24:31;;;;;;;;;;;;;;;;;;2199286;59;1510;-71
2021/11/24 09:27:11;;;;;;;;;;;;;;;;;;2201829;67;1175;-71
2021/11/24 09:29:44;;;;;;;;;;;;;;;;;;2198413;59;1270;-71
2021/11/24 09:32:20;;;;;;;;;;;;;;;;;;2199052;59;1936;-71
2021/11/24 09:34:53;;;;;;;;;;;;;;;;;;2199566;67;1291;-71
2021/11/24 09:37:26;;;;;;;;;;;;;;;;;;2198182;59;1249;-71
2021/11/24 09:40:00;;;;;;;;;;;;;;;;;;2198467;59;1252;-71
2021/11/24 09:42:34;;;;;;;;;;;;;;;;;;2198019;59;1267;-71
2021/11/24 09:45:07;;;;;;;;;;;;;;;;;;2199869;67;1235;-71
2021/11/24 09:47:46;;;;;;;;;;;;;;;;;;2199895;67;1206;-71
2021/11/24 09:50:22;;;;;;;;;;;;;;;;;;2199834;59;1916;-71
2021/11/24 09:52:56;;;;;;;;;;;;;;;;;;2199820;59;1300;-71
2021/11/24 09:55:37;;;;;;;;;;;;;;;;;;2199979;67;1261;-71
2021/11/24 09:58:12;;;;;;;;;;;;;;;;;;2200009;59;1200;-71
2021/11/24 10:00:46;;;;;;;;;;;;;;;;;;2200085;59;1197;-71
2021/11/24 10:03:22;;;;;;;;;;;;;;;;;;2199650;59;1213;-71
2021/11/24 10:05:55;;;;;;;;;;;;;;;;;;2199571;59;1448;-71
2021/11/24 10:08:32;;;;;;;;;;;;;;;;;;2199597;67;1322;-72
2021/11/24 10:11:05;;;;;;;;;;;;;;;;;;2199755;67;1914;-71
2021/11/24 10:13:38;;;;;;;;;;;;;;;;;;2201660;59;1566;-71
2021/11/24 10:16:21;;;;;;;;;;;;;;;;;;2200240;67;1407;-71
2021/11/24 10:19:04;;;;;;;;;;;;;;;;;;2198646;67;1149;-71
2021/11/24 10:21:37;;;;;;;;;;;;;;;;;;2199774;59;1204;-71
2021/11/24 10:24:11;;;;;;;;;;;;;;;;;;2201150;59;1764;-71
2021/11/24 10:26:44;;;;;;;;;;;;;;;;;;2199847;67;1215;-71
2021/11/24 10:29:18;;;;;;;;;;;;;;;;;;2199768;60;1156;-71
2021/11/24 10:31:54;;;;;;;;;;;;;;;;;;2199367;59;1960;-71
2021/11/24 10:34:30;;;;;;;;;;;;;;;;;;2199846;67;1204;-71
2021/11/24 10:37:05;;;;;;;;;;;;;;;;;;2199030;67;1452;-71
2021/11/24 10:39:39;;;;;;;;;;;;;;;;;;2197103;59;1440;-71
2021/11/24 10:42:15;;;;;;;;;;;;;;;;;;2199367;59;1265;-71
2021/11/24 10:44:50;;;;;;;;;;;;;;;;;;2198344;67;1219;-71
2021/11/24 10:47:23;;;;;;;;;;;;;;;;;;2200134;67;1307;-71
2021/11/24 10:50:00;;;;;;;;;;;;;;;;;;2198261;59;1613;-71
2021/11/24 10:52:36;;;;;;;;;;;;;;;;;;2208376;59;1937;-71
2021/11/24 10:55:11;;;;;;;;;;;;;;;;;;2204613;59;1800;-71
2021/11/24 10:57:44;;;;;;;;;;;;;;;;;;2203407;67;1312;-71
2021/11/24 11:00:21;;;;;;;;;;;;;;;;;;2200351;67;1209;-71
2021/11/24 11:02:54;;;;;;;;;;;;;;;;;;2201067;59;1278;-70
2021/11/24 11:05:31;;;;;;;;;;;;;;;;;;2198272;59;1821;-71
2021/11/24 11:08:05;;;;;;;;;;;;;;;;;;2198249;67;1263;-71
2021/11/24 11:10:40;;;;;;;;;;;;;;;;;;2201477;59;1940;-71
2021/11/24 11:13:14;;;;;;;;;;;;;;;;;;2200944;59;1329;-71
2021/11/24 11:15:47;;;;;;;;;;;;;;;;;;2204774;59;1191;-70
2021/11/24 11:18:25;;;;;;;;;;;;;;;;;;2203594;59;2060;-70
2021/11/24 11:21:02;;;;;;;;;;;;;;;;;;2199757;59;1223;-71
2021/11/24 11:23:36;;;;;;;;;;;;;;;;;;2201266;59;1289;-70
2021/11/24 11:26:11;;;;;;;;;;;;;;;;;;2205400;59;1179;-70
2021/11/24 11:28:45;;;;;;;;;;;;;;;;;;2201086;59;1755;-70
2021/11/24 11:31:19;;;;;;;;;;;;;;;;;;2199715;67;2467;-71
2021/11/24 11:33:55;;;;;;;;;;;;;;;;;;2199724;59;1351;-71
2021/11/24 11:36:31;;;;;;;;;;;;;;;;;;2206030;59;1233;-71
2021/11/24 11:39:04;;;;;;;;;;;;;;;;;;2197584;67;1220;-71
2021/11/24 11:41:39;;;;;;;;;;;;;;;;;;2199884;59;1249;-71
2021/11/24 11:44:15;;;;;;;;;;;;;;;;;;2199757;59;1793;-71
2021/11/24 11:46:50;;;;;;;;;;;;;;;;;;2196316;59;1606;-70
2021/11/24 11:49:24;;;;;;;;;;;;;;;;;;2205306;67;1250;-71
2021/11/24 11:52:05;;;;;;;;;;;;;;;;;;2199756;59;1991;-71
2021/11/24 11:54:39;;;;;;;;;;;;;;;;;;2200783;59;2638;-70
2021/11/24 11:57:18;;;;;;;;;;;;;;;;;;2201583;59;2694;-70
2021/11/24 12:00:02;;;;;;;;;;;;;;;;;;2206131;67;1168;-71
2021/11/24 12:02:35;;;;;;;;;;;;;;;;;;2203156;59;1273;-70
2021/11/24 12:05:09;;;;;;;;;;;;;;;;;;2198331;67;1322;-70
2021/11/24 12:08:06;;;;;;;;;;;;;;;;;;2200006;67;1175;-70
2021/11/24 12:10:57;;;;;;;;;;;;;;;;;;2200400;59;1226;-70
2021/11/24 12:13:31;;;;;;;;;;;;;;;;;;2200875;59;1325;-70
2021/11/24 12:16:19;;;;;;;;;;;;;;;;;;2199194;59;1763;-70
2021/11/24 12:19:11;;;;;;;;;;;;;;;;;;2201957;67;1295;-70
2021/11/24 12:21:51;;;;;;;;;;;;;;;;;;2205238;67;1234;-70
2021/11/24 12:24:40;;;;;;;;;;;;;;;;;;2201646;59;1666;-70
2021/11/24 12:27:17;;;;;;;;;;;;;;;;;;2203845;67;1133;-71
2021/11/24 12:29:51;;;;;;;;;;;;;;;;;;2200438;59;1423;-70
2021/11/24 12:32:26;;;;;;;;;;;;;;;;;;2200040;59;1981;-70
2021/11/24 12:35:01;;;;;;;;;;;;;;;;;;2199150;67;1242;-70
2021/11/24 12:37:34;;;;;;;;;;;;;;;;;;2199134;59;1253;-70
2021/11/24 12:40:08;;;;;;;;;;;;;;;;;;2199070;67;1270;-70
2021/11/24 12:42:56;;;;;;;;;;;;;;;;;;2200025;67;1274;-70
2021/11/24 12:45:29;;;;;;;;;;;;;;;;;;2199258;67;1093;-70
2021/11/24 12:48:04;;;;;;;;;;;;;;;;;;2199939;59;1314;-70
2021/11/24 12:50:37;;;;;;;;;;;;;;;;;;2198457;59;1816;-70
2021/11/24 12:53:10;;;;;;;;;;;;;;;;;;2199793;67;1989;-70
2021/11/24 12:55:44;;;;;;;;;;;;;;;;;;2202912;59;2602;-70
2021/11/24 12:58:29;;;;;;;;;;;;;;;;;;2202239;59;2256;-70
2021/11/24 13:01:07;;;;;;;;;;;;;;;;;;2208334;59;1312;-70
2021/11/24 13:03:40;;;;;;;;;;;;;;;;;;2199205;59;1750;-70
2021/11/24 13:06:14;;;;;;;;;;;;;;;;;;2199325;59;1223;-70
2021/11/24 13:09:00;;;;;;;;;;;;;;;;;;2199044;59;1179;-70
2021/11/24 13:11:34;;;;;;;;;;;;;;;;;;2199403;59;1918;-70
2021/11/24 13:14:10;;;;;;;;;;;;;;;;;;2205229;59;1215;-70
2021/11/24 13:16:43;;;;;;;;;;;;;;;;;;2198159;59;1651;-70
2021/11/24 13:19:16;;;;;;;;;;;;;;;;;;2206427;59;1179;-70
2021/11/24 13:21:50;;;;;;;;;;;;;;;;;;2204142;67;1254;-70
2021/11/24 13:24:24;;;;;;;;;;;;;;;;;;2199442;59;1429;-70
2021/11/24 13:26:58;;;;;;;;;;;;;;;;;;2200589;67;1050;-70
2021/11/24 13:29:35;;;;;;;;;;;;;;;;;;2201081;67;1130;-70
2021/11/24 13:32:11;;;;;;;;;;;;;;;;;;2201430;59;1999;-69
2021/11/24 13:34:44;;;;;;;;;;;;;;;;;;2205161;59;1757;-69
2021/11/24 13:37:18;;;;;;;;;;;;;;;;;;2201498;67;1219;-68
2021/11/24 13:39:54;;;;;;;;;;;;;;;;;;2199700;59;1246;-68
2021/11/24 13:42:27;;;;;;;;;;;;;;;;;;2206990;67;1202;-68
2021/11/24 13:45:03;;;;;;;;;;;;;;;;;;2200531;67;1979;-69
2021/11/24 13:47:36;;;;;;;;;;;;;;;;;;2198925;59;1241;-69
2021/11/24 13:50:09;;;;;;;;;;;;;;;;;;2201253;59;1165;-69
2021/11/24 13:52:43;;;;;;;;;;;;;;;;;;2215946;66;1957;-69
2021/11/24 13:55:18;;;;;;;;;;;;;;;;;;2198772;67;1152;-70
2021/11/24 13:57:51;;;;;;;;;;;;;;;;;;2197963;59;2605;-69
2021/11/24 14:00:27;;;;;;;;;;;;;;;;;;2200915;59;2184;-70
2021/11/24 14:03:00;;;;;;;;;;;;;;;;;;2199100;59;1822;-69
2021/11/24 14:05:36;;;;;;;;;;;;;;;;;;2200051;59;2193;-69
2021/11/24 14:08:18;;;;;;;;;;;;;;;;;;2199091;67;1096;-70
2021/11/24 14:10:51;;;;;;;;;;;;;;;;;;2199758;67;1200;-69
2021/11/24 14:13:24;;;;;;;;;;;;;;;;;;2201003;59;1990;-69
2021/11/24 14:16:09;;;;;;;;;;;;;;;;;;2200975;59;1863;-69
2021/11/24 14:18:42;;;;;;;;;;;;;;;;;;2200075;67;1210;-69
2021/11/24 14:21:15;;;;;;;;;;;;;;;;;;2200435;59;1152;-69
2021/11/24 14:23:48;;;;;;;;;;;;;;;;;;2199748;59;1405;-69
2021/11/24 14:26:21;;;;;;;;;;;;;;;;;;2198415;59;1758;-69
2021/11/24 14:28:55;;;;;;;;;;;;;;;;;;2200499;59;1967;-70
2021/11/24 14:31:31;;;;;;;;;;;;;;;;;;2200290;59;1357;-69
2021/11/24 14:34:05;;;;;;;;;;;;;;;;;;2212692;53;3579;-67
2021/11/24 14:36:38;;;;;;;;;;;;;;;;;;2214069;59;1159;-68
2021/11/24 14:39:11;;;;;;;;;;;;;;;;;;2215209;67;1193;-67
2021/11/24 14:41:45;;;;;;;;;;;;;;;;;;2215636;59;1294;-68
2021/11/24 14:44:19;;;;;;;;;;;;;;;;;;2215018;59;1254;-69
2021/11/24 14:46:55;;;;;;;;;;;;;;;;;;2215297;58;1449;-68
2021/11/24 14:49:28;;;;;;;;;;;;;;;;;;2215291;58;1345;-68
2021/11/24 14:52:01;;;;;;;;;;;;;;;;;;2216032;66;1935;-68
2021/11/24 14:54:45;;;;;;;;;;;;;;;;;;2214041;59;1693;-67
2021/11/24 14:57:18;;;;;;;;;;;;;;;;;;2212708;59;1824;-68
2021/11/24 14:59:52;;;;;;;;;;;;;;;;;;2214851;66;1137;-68
2021/11/24 15:02:28;;;;;;;;;;;;;;;;;;2215301;59;1466;-68
2021/11/24 15:05:01;;;;;;;;;;;;;;;;;;2215581;66;1306;-68
2021/11/24 15:07:34;;;;;;;;;;;;;;;;;;2215640;59;1262;-68
2021/11/24 15:10:07;;;;;;;;;;;;;;;;;;2215938;59;1251;-68
2021/11/24 15:12:41;;;;;;;;;;;;;;;;;;2215795;59;1996;-68
2021/11/24 15:15:14;;;;;;;;;;;;;;;;;;2215457;59;1219;-68
2021/11/24 15:17:50;;;;;;;;;;;;;;;;;;2216127;58;1995;-68
2021/11/24 15:20:23;;;;;;;;;;;;;;;;;;2214999;59;1855;-68
2021/11/24 15:22:56;;;;;;;;;;;;;;;;;;2214249;59;1301;-68
2021/11/24 15:25:29;;;;;;;;;;;;;;;;;;2215708;67;1287;-68
2021/11/24 15:28:02;;;;;;;;;;;;;;;;;;2216743;59;1291;-68
2021/11/24 15:30:36;;;;;;;;;;;;;;;;;;2215778;59;1182;-68
2021/11/24 15:33:12;;;;;;;;;;;;;;;;;;2216995;59;1933;-68
2021/11/24 15:35:45;;;;;;;;;;;;;;;;;;2215568;66;1160;-67
2021/11/24 15:38:19;;;;;;;;;;;;;;;;;;2216753;66;1025;-68
2021/11/24 15:40:52;;;;;;;;;;;;;;;;;;2216048;66;1119;-68
2021/11/24 15:43:28;;;;;;;;;;;;;;;;;;2216977;66;1116;-69
2021/11/24 15:46:03;;;;;;;;;;;;;;;;;;2217022;59;1447;-69
2021/11/24 15:48:39;;;;;;;;;;;;;;;;;;2216773;59;1188;-69
2021/11/24 15:51:13;;;;;;;;;;;;;;;;;;2215949;67;1093;-69
2021/11/24 15:53:46;;;;;;;;;;;;;;;;;;2216643;60;1971;-69
2021/11/24 15:56:22;;;;;;;;;;;;;;;;;;2214469;59;2033;-69
2021/11/24 15:58:56;;;;;;;;;;;;;;;;;;2215906;66;1231;-69
2021/11/24 16:01:29;;;;;;;;;;;;;;;;;;2215639;59;1325;-69
2021/11/24 16:04:06;;;;;;;;;;;;;;;;;;2216336;66;1297;-69
2021/11/24 16:06:40;;;;;;;;;;;;;;;;;;2215819;58;1222;-69
2021/11/24 16:09:13;;;;;;;;;;;;;;;;;;2216633;59;1479;-69
2021/11/24 16:11:46;;;;;;;;;;;;;;;;;;2212723;59;1708;-69
2021/11/24 16:14:19;;;;;;;;;;;;;;;;;;2212574;59;1928;-69
2021/11/24 16:16:53;;;;;;;;;;;;;;;;;;2213119;59;1634;-69
2021/11/24 16:19:28;;;;;;;;;;;;;;;;;;2214890;58;1492;-69
2021/11/24 16:22:01;;;;;;;;;;;;;;;;;;2214067;59;2242;-69
2021/11/24 16:24:35;;;;;;;;;;;;;;;;;;2212821;59;2362;-69
2021/11/24 16:27:08;;;;;;;;;;;;;;;;;;2215030;66;1222;-69
2021/11/24 16:29:41;;;;;;;;;;;;;;;;;;2216379;66;1206;-69
2021/11/24 16:32:14;;;;;;;;;;;;;;;;;;2213730;59;1717;-69
2021/11/24 16:34:50;;;;;;;;;;;;;;;;;;2215617;58;1944;-69
2021/11/24 16:37:23;;;;;;;;;;;;;;;;;;2214937;58;1294;-69
2021/11/24 16:39:56;;;;;;;;;;;;;;;;;;2214142;67;1379;-69
2021/11/24 16:42:29;;;;;;;;;;;;;;;;;;2215281;66;1270;-69
2021/11/24 16:45:02;;;;;;;;;;;;;;;;;;2215649;59;1210;-69
2021/11/24 16:47:36;;;;;;;;;;;;;;;;;;2214122;59;1876;-69
2021/11/24 16:50:12;;;;;;;;;;;;;;;;;;2214769;58;2075;-69
2021/11/24 16:52:45;;;;;;;;;;;;;;;;;;2214891;59;1976;-69
2021/11/24 16:55:18;;;;;;;;;;;;;;;;;;2213945;59;1781;-69
2021/11/24 16:57:51;;;;;;;;;;;;;;;;;;2213798;59;1779;-69
2021/11/24 17:00:24;;;;;;;;;;;;;;;;;;2214910;58;1247;-70
2021/11/24 17:02:57;;;;;;;;;;;;;;;;;;2216219;59;1394;-69
2021/11/24 17:05:33;;;;;;;;;;;;;;;;;;2215729;66;1220;-70
2021/11/24 17:08:07;;;;;;;;;;;;;;;;;;2215974;58;1235;-69
2021/11/24 17:10:40;;;;;;;;;;;;;;;;;;2215970;59;1136;-69
2021/11/24 17:13:13;;;;;;;;;;;;;;;;;;2214654;59;1928;-69
2021/11/24 17:15:46;;;;;;;;;;;;;;;;;;2214702;58;1764;-69
2021/11/24 17:18:19;;;;;;;;;;;;;;;;;;2214933;67;1307;-69
2021/11/24 17:20:55;;;;;;;;;;;;;;;;;;2215460;67;1239;-69
2021/11/24 17:23:29;;;;;;;;;;;;;;;;;;2209607;59;2148;-70
2021/11/24 17:26:02;;;;;;;;;;;;;;;;;;2214328;59;1657;-70
2021/11/24 17:28:35;;;;;;;;;;;;;;;;;;2213812;59;2137;-69
2021/11/24 17:31:08;;;;;;;;;;;;;;;;;;2215272;59;1272;-70
2021/11/24 17:33:43;;;;;;;;;;;;;;;;;;2215516;59;1952;-69
2021/11/24 17:36:19;;;;;;;;;;;;;;;;;;2214441;59;1628;-69
2021/11/24 17:38:53;;;;;;;;;;;;;;;;;;2215191;59;1985;-69
2021/11/24 17:41:26;;;;;;;;;;;;;;;;;;2215483;67;1203;-70
2021/11/24 17:43:59;;;;;;;;;;;;;;;;;;2215561;66;1254;-69
2021/11/24 17:46:32;;;;;;;;;;;;;;;;;;2215411;66;1197;-69
2021/11/24 17:49:05;;;;;;;;;;;;;;;;;;2214074;66;1188;-69
2021/11/24 17:51:42;;;;;;;;;;;;;;;;;;2215428;66;1226;-69
2021/11/24 17:54:18;;;;;;;;;;;;;;;;;;2215212;58;1974;-69